»·PEaware :: QXE984 KPSP-KLGB

QXE984 :: KPSP-KLGB

FLIGHT INFORMATION

Flight Status: Arrived
Operator:
Horizon Air
More flights by this operator :: More flights under this callsign
Pilot: Jason B. (17)
Aircraft: Unknown
(DHC8)
More flights by this aircraft type
Origin: KPSP Palm Springs Intl
United States
Destination: KLGB Long Beach
United States
More flights between these airports :: More routes between these airports
Route: +CATH1 PSP V388 ACINS V283 SLI
File this flight plan on PilotEdge
Remarks:
Altitude:
(Current/Filed)
100ft
Speed:
(Current/Filed)
275kts
Departed: 10-Oct-11 04:43 PM
Arrived: 10-Oct-11 05:23 PM
Distance/Time
Traveled:
82nm/0:40
Distance/Time
To Go:
Arrived

Flight Plot

Page will automatically refresh every two minutes.

Flight plan parsing failed; only flown route is shown


Map Options




Map Legend


Flown Route
Filed Route
Departure Airport
Arrival Airport
Navaid (VOR, NDB)
Fix

Horizontal Profiles

Position Reports

Time Latitude Longitude Heading Altitude Ground
Speed
10-Oct-11 16:14 33.821584 -116.506554 0 481ft 0kts
10-Oct-11 16:15 33.821584 -116.506554 0 481ft 0kts
10-Oct-11 16:16 33.821584 -116.506554 0 481ft 0kts
10-Oct-11 16:17 33.821584 -116.506554 0 481ft 0kts
10-Oct-11 16:18 33.821584 -116.506554 0 481ft 0kts
10-Oct-11 16:19 33.821584 -116.506554 0 481ft 0kts
10-Oct-11 16:20 33.821584 -116.506554 0 481ft 0kts
10-Oct-11 16:21 33.821584 -116.506554 0 481ft 0kts
10-Oct-11 16:22 33.821584 -116.506554 0 481ft 0kts
10-Oct-11 16:24 33.821584 -116.506554 0 481ft 0kts
10-Oct-11 16:25 33.821584 -116.506554 0 481ft 0kts
10-Oct-11 16:26 33.821584 -116.506554 0 481ft 0kts
10-Oct-11 16:27 33.821584 -116.506554 0 481ft 0kts
10-Oct-11 16:28 33.821584 -116.506554 0 481ft 0kts
10-Oct-11 16:29 33.821584 -116.506554 0 481ft 0kts
10-Oct-11 16:30 33.821584 -116.506554 0 481ft 0kts
10-Oct-11 16:31 33.821584 -116.506554 0 481ft 0kts
10-Oct-11 16:32 33.821584 -116.506554 0 481ft 0kts
10-Oct-11 16:33 33.821584 -116.506554 0 481ft 0kts
10-Oct-11 16:34 33.821618 -116.506554 0 481ft 2kts
10-Oct-11 16:35 33.822112 -116.505007 107 481ft 0kts
10-Oct-11 16:36 33.821789 -116.504034 114 481ft 5kts
10-Oct-11 16:37 33.821650 -116.502661 89 481ft 4kts
10-Oct-11 16:38 33.821651 -116.501700 90 481ft 0kts
10-Oct-11 16:39 33.821657 -116.500936 79 481ft 7kts
10-Oct-11 16:40 33.844416 -116.519829 326 1186ft 175kts
10-Oct-11 16:41 33.884028 -116.555040 323 3958ft 184kts
10-Oct-11 16:42 33.922989 -116.590561 322 7020ft 177kts
10-Oct-11 16:43 33.950583 -116.564252 130 9436ft 180kts
10-Oct-11 16:44 33.912229 -116.529464 148 11995ft 178kts
10-Oct-11 16:45 33.881558 -116.473035 106 12138ft 225kts
10-Oct-11 16:46 33.860431 -116.395962 112 12031ft 255kts
10-Oct-11 16:47 33.834851 -116.315014 128 12015ft 267kts
10-Oct-11 16:48 33.776379 -116.273384 118 12084ft 262kts
10-Oct-11 16:49 33.746762 -116.296681 317 11979ft 260kts
10-Oct-11 16:50 33.808478 -116.341373 319 11829ft 252kts
10-Oct-11 16:51 33.853513 -116.406284 309 12027ft 266kts
10-Oct-11 16:52 33.907316 -116.482286 309 12026ft 318kts
10-Oct-11 16:53 33.911317 -116.582134 276 12030ft 315kts
10-Oct-11 16:54 33.932020 -116.685374 283 12020ft 320kts
10-Oct-11 16:55 33.950320 -116.790317 266 12026ft 318kts
10-Oct-11 16:56 33.947059 -116.896283 266 12020ft 320kts
10-Oct-11 16:57 33.944628 -117.002908 267 12020ft 321kts
10-Oct-11 16:59 33.900947 -117.182200 182 12092ft 284kts
10-Oct-11 17:00 33.825726 -117.176050 184 12037ft 264kts
10-Oct-11 17:01 33.764659 -117.202329 266 12231ft 241kts
10-Oct-11 17:02 33.780004 -117.273427 267 11741ft 198kts
10-Oct-11 17:03 33.778000 -117.338867 274 11222ft 210kts
10-Oct-11 17:04 33.778055 -117.409398 274 9899ft 202kts
10-Oct-11 17:05 33.777509 -117.463522 272 8593ft 197kts
10-Oct-11 17:06 33.774505 -117.519748 269 8123ft 207kts
10-Oct-11 17:07 33.768648 -117.587080 253 8046ft 195kts
10-Oct-11 17:08 33.742504 -117.646185 245 6738ft 202kts
10-Oct-11 17:09 33.715522 -117.706276 242 4964ft 199kts
10-Oct-11 17:10 33.686850 -117.762769 242 5180ft 201kts
10-Oct-11 17:11 33.660686 -117.815964 242 4297ft 173kts
10-Oct-11 17:12 33.656721 -117.869028 283 3036ft 169kts
10-Oct-11 17:13 33.667742 -117.923731 283 2981ft 165kts
10-Oct-11 17:14 33.681293 -117.979195 297 3038ft 177kts
10-Oct-11 17:15 33.709932 -118.020519 310 2897ft 150kts
10-Oct-11 17:16 33.735690 -118.051580 310 2283ft 120kts
10-Oct-11 17:17 33.763763 -118.085934 312 1405ft 125kts
10-Oct-11 17:18 33.784324 -118.110544 312 856ft 124kts
10-Oct-11 17:19 33.808508 -118.140274 311 159ft 119kts
10-Oct-11 17:20 33.818427 -118.151016 88 67ft 9kts
10-Oct-11 17:21 33.818432 -118.150827 88 67ft 4kts
10-Oct-11 17:22 33.818407 -118.147035 95 67ft 6kts
10-Oct-11 17:23 33.818223 -118.146236 144 67ft 1kts
10-Oct-11 17:24 33.816088 -118.145811 152 67ft 8kts
10-Oct-11 17:25 33.816099 -118.145526 319 67ft 0kts
10-Oct-11 17:26 33.816099 -118.145526 319 67ft 0kts
10-Oct-11 17:27 33.816099 -118.145526 319 67ft 0kts
10-Oct-11 17:28 33.816099 -118.145526 319 67ft 0kts
10-Oct-11 17:29 33.816099 -118.145526 319 67ft 0kts

Navigation Log

Ident Type
Flight plan parsing failed, navigation log unavailable